Time;durP1;ratioP1;P1;durP2;ratioP2;P2;SDS_P1;SDS_P2;PMS_P1;PMS_P2;Temp;Humidity;BMP_temperature;BMP_pressure;BME280_temperature;BME280_humidity;BME280_pressure;Samples;Min_cycle;Max_cycle;Signal;HPM_P1;HPM_P2
2023/07/18 00:00:27;;;;;;;14.82;6.75;;;;;;;;;;5054729;28;20036;-78
2023/07/18 00:02:54;;;;;;;17.55;6.82;;;;;;;;;;5052941;28;20050;-78
2023/07/18 00:05:22;;;;;;;13.27;6.82;;;;;;;;;;5053916;28;20525;-78
2023/07/18 00:07:48;;;;;;;13.18;6.80;;;;;;;;;;5053974;28;20436;-78
2023/07/18 00:10:15;;;;;;;13.43;6.78;;;;;;;;;;5053732;28;20021;-78
2023/07/18 00:12:41;;;;;;;13.90;6.18;;;;;;;;;;5054157;28;20025;-78
2023/07/18 00:15:09;;;;;;;11.23;6.70;;;;;;;;;;5052619;28;20159;-78
2023/07/18 00:17:36;;;;;;;13.85;6.68;;;;;;;;;;5054262;28;20025;-78
2023/07/18 00:20:04;;;;;;;12.13;6.70;;;;;;;;;;5053806;28;20029;-78
2023/07/18 00:22:31;;;;;;;12.13;6.68;;;;;;;;;;5054216;28;20021;-78
2023/07/18 00:24:57;;;;;;;15.05;7.68;;;;;;;;;;5069594;28;20066;-78
2023/07/18 00:27:23;;;;;;;12.75;6.55;;;;;;;;;;5053858;28;20375;-78
2023/07/18 00:29:50;;;;;;;17.75;7.53;;;;;;;;;;5053985;28;20035;-78
2023/07/18 00:32:16;;;;;;;12.50;6.72;;;;;;;;;;5053747;28;20029;-78
2023/07/18 00:34:44;;;;;;;19.58;6.75;;;;;;;;;;5052738;28;20033;-78
2023/07/18 00:37:10;;;;;;;10.55;6.40;;;;;;;;;;5050361;28;20057;-78
2023/07/18 00:39:37;;;;;;;13.60;6.15;;;;;;;;;;5052883;28;20367;-78
2023/07/18 00:42:04;;;;;;;17.10;7.25;;;;;;;;;;5052093;28;20031;-78
2023/07/18 00:44:30;;;;;;;14.27;6.55;;;;;;;;;;5053038;28;20024;-78
2023/07/18 00:46:56;;;;;;;13.77;6.32;;;;;;;;;;5053335;28;20025;-78
2023/07/18 00:49:23;;;;;;;14.77;6.32;;;;;;;;;;5053410;28;20044;-78
2023/07/18 00:51:49;;;;;;;10.45;6.35;;;;;;;;;;5052839;28;20025;-78
2023/07/18 00:54:16;;;;;;;15.02;6.63;;;;;;;;;;5052997;28;20017;-78
2023/07/18 00:56:42;;;;;;;12.95;7.03;;;;;;;;;;5053132;28;20592;-78
2023/07/18 00:59:10;;;;;;;12.20;6.40;;;;;;;;;;5052572;28;20048;-78
2023/07/18 01:01:36;;;;;;;14.73;6.65;;;;;;;;;;5051813;28;20446;-78
2023/07/18 01:04:02;;;;;;;11.02;6.10;;;;;;;;;;5053477;28;20040;-78
2023/07/18 01:06:29;;;;;;;13.07;6.28;;;;;;;;;;5053695;28;20029;-78
2023/07/18 01:08:55;;;;;;;15.07;7.53;;;;;;;;;;5053097;28;20526;-78
2023/07/18 01:11:21;;;;;;;10.02;6.38;;;;;;;;;;5053274;28;20060;-78
2023/07/18 01:13:47;;;;;;;11.40;6.45;;;;;;;;;;5053143;28;20029;-78
2023/07/18 01:16:14;;;;;;;12.05;6.55;;;;;;;;;;5053347;28;20099;-78
2023/07/18 01:18:40;;;;;;;11.65;6.45;;;;;;;;;;5053110;28;20025;-78
2023/07/18 01:21:08;;;;;;;14.43;6.50;;;;;;;;;;5051932;28;20029;-77
2023/07/18 01:23:34;;;;;;;16.55;7.00;;;;;;;;;;5052677;28;20017;-78
2023/07/18 01:26:00;;;;;;;13.70;6.82;;;;;;;;;;5052895;28;20408;-78
2023/07/18 01:28:27;;;;;;;10.90;7.03;;;;;;;;;;5052551;28;20021;-78
2023/07/18 01:30:53;;;;;;;13.10;6.85;;;;;;;;;;5051828;28;20032;-78
2023/07/18 01:33:19;;;;;;;16.38;6.82;;;;;;;;;;5052688;28;20100;-78
2023/07/18 01:35:46;;;;;;;15.95;6.45;;;;;;;;;;5052577;28;20009;-77
2023/07/18 01:38:12;;;;;;;14.80;7.10;;;;;;;;;;5052039;28;20462;-78
2023/07/18 01:40:38;;;;;;;13.55;6.65;;;;;;;;;;5052480;28;20049;-78
2023/07/18 01:43:04;;;;;;;12.07;6.53;;;;;;;;;;5051412;28;20107;-78
2023/07/18 01:45:31;;;;;;;11.10;6.38;;;;;;;;;;5052441;28;20064;-78
2023/07/18 01:47:59;;;;;;;16.90;6.75;;;;;;;;;;5052519;28;20041;-78
2023/07/18 01:50:27;;;;;;;11.25;6.20;;;;;;;;;;5052205;28;20021;-78
2023/07/18 01:52:53;;;;;;;14.43;6.55;;;;;;;;;;5051062;28;20047;-78
2023/07/18 01:55:19;;;;;;;11.00;7.20;;;;;;;;;;5051080;28;20013;-78
2023/07/18 01:57:49;;;;;;;11.73;6.85;;;;;;;;;;5051977;28;20092;-78
2023/07/18 02:00:19;;;;;;;8.90;6.65;;;;;;;;;;5052221;28;20029;-78
2023/07/18 02:02:48;;;;;;;13.70;6.28;;;;;;;;;;5052501;28;20047;-78
2023/07/18 02:05:15;;;;;;;12.45;6.57;;;;;;;;;;5055578;28;20363;-78
2023/07/18 02:07:41;;;;;;;12.18;6.82;;;;;;;;;;5056282;28;20053;-78
2023/07/18 02:10:07;;;;;;;11.20;6.60;;;;;;;;;;5056151;28;20463;-78
2023/07/18 02:12:33;;;;;;;13.00;6.28;;;;;;;;;;5056079;28;20027;-78
2023/07/18 02:14:59;;;;;;;13.55;7.00;;;;;;;;;;5055772;28;20712;-78
2023/07/18 02:17:25;;;;;;;10.73;6.28;;;;;;;;;;5054344;28;20112;-78
2023/07/18 02:19:51;;;;;;;13.32;7.15;;;;;;;;;;5055738;28;20417;-78
2023/07/18 02:22:19;;;;;;;15.00;7.55;;;;;;;;;;5054179;28;20028;-78
2023/07/18 02:24:45;;;;;;;11.13;7.35;;;;;;;;;;5052566;28;20048;-78
2023/07/18 02:27:11;;;;;;;11.05;7.10;;;;;;;;;;5055950;28;20029;-78
2023/07/18 02:29:37;;;;;;;13.15;7.55;;;;;;;;;;5055572;28;20033;-78
2023/07/18 02:32:03;;;;;;;11.60;6.97;;;;;;;;;;5055524;28;20036;-78
2023/07/18 02:34:29;;;;;;;21.30;6.72;;;;;;;;;;5055990;28;20013;-78
2023/07/18 02:36:55;;;;;;;13.77;7.22;;;;;;;;;;5055516;28;20021;-77
2023/07/18 02:39:21;;;;;;;11.02;6.82;;;;;;;;;;5055323;28;20017;-77
2023/07/18 02:41:48;;;;;;;11.25;7.57;;;;;;;;;;5056041;28;20027;-78
2023/07/18 02:44:14;;;;;;;13.05;6.90;;;;;;;;;;5055559;28;20106;-78
2023/07/18 02:46:40;;;;;;;10.77;7.50;;;;;;;;;;5053763;28;20021;-78
2023/07/18 02:49:06;;;;;;;16.17;7.70;;;;;;;;;;5055583;28;20103;-78
2023/07/18 02:51:32;;;;;;;13.38;7.35;;;;;;;;;;5055212;28;20028;-78
2023/07/18 02:53:58;;;;;;;16.75;7.28;;;;;;;;;;5055336;28;20025;-78
2023/07/18 02:56:24;;;;;;;12.02;7.28;;;;;;;;;;5053769;28;20021;-78
2023/07/18 02:58:51;;;;;;;12.10;7.45;;;;;;;;;;5055560;28;20036;-78
2023/07/18 03:01:20;;;;;;;12.55;7.47;;;;;;;;;;5054985;28;20029;-78
2023/07/18 03:03:46;;;;;;;13.52;7.22;;;;;;;;;;5054968;28;20016;-78
2023/07/18 03:06:14;;;;;;;19.17;8.82;;;;;;;;;;5055848;28;20025;-78
2023/07/18 03:08:41;;;;;;;14.10;8.02;;;;;;;;;;5054262;28;20020;-77
2023/07/18 03:11:07;;;;;;;17.27;7.53;;;;;;;;;;5055215;28;20447;-78
2023/07/18 03:13:33;;;;;;;19.35;8.60;;;;;;;;;;5055457;28;20463;-78
2023/07/18 03:15:59;;;;;;;14.85;8.43;;;;;;;;;;5054963;28;20017;-78
2023/07/18 03:18:26;;;;;;;16.02;8.88;;;;;;;;;;5055489;28;20013;-78
2023/07/18 03:20:52;;;;;;;16.88;8.82;;;;;;;;;;5070666;28;20063;-78
2023/07/18 03:23:18;;;;;;;13.82;8.32;;;;;;;;;;5055409;28;20021;-78
2023/07/18 03:25:44;;;;;;;14.65;8.43;;;;;;;;;;5070749;28;20100;-78
2023/07/18 03:28:10;;;;;;;21.83;9.27;;;;;;;;;;5055196;28;20025;-77
2023/07/18 03:30:37;;;;;;;16.60;8.10;;;;;;;;;;5055164;28;20027;-77
2023/07/18 03:33:03;;;;;;;14.48;8.68;;;;;;;;;;5054447;28;20025;-77
2023/07/18 03:35:29;;;;;;;10.90;8.40;;;;;;;;;;5053305;28;20027;-78
2023/07/18 03:37:55;;;;;;;13.65;9.00;;;;;;;;;;5054584;28;20019;-78
2023/07/18 03:40:21;;;;;;;15.60;10.70;;;;;;;;;;5053358;28;20020;-78
2023/07/18 03:42:47;;;;;;;18.27;11.60;;;;;;;;;;5053894;28;20420;-78
2023/07/18 03:45:14;;;;;;;17.02;10.77;;;;;;;;;;5054636;28;20013;-78
2023/07/18 03:47:40;;;;;;;19.77;11.38;;;;;;;;;;5052965;28;20448;-78
2023/07/18 03:50:08;;;;;;;22.85;11.52;;;;;;;;;;5053609;28;20406;-78
2023/07/18 03:52:35;;;;;;;18.13;11.07;;;;;;;;;;5053119;28;20036;-78
2023/07/18 03:55:03;;;;;;;16.63;9.75;;;;;;;;;;5054365;28;20348;-78
2023/07/18 03:57:29;;;;;;;15.35;8.73;;;;;;;;;;5054315;28;20017;-78
2023/07/18 03:59:56;;;;;;;14.70;9.25;;;;;;;;;;5054762;28;20029;-78
2023/07/18 04:02:22;;;;;;;19.35;8.95;;;;;;;;;;5053754;28;20032;-78
2023/07/18 04:04:48;;;;;;;15.25;8.57;;;;;;;;;;5052390;28;20340;-78
2023/07/18 04:07:14;;;;;;;15.70;9.13;;;;;;;;;;5053916;28;20348;-78
2023/07/18 04:09:40;;;;;;;18.00;9.50;;;;;;;;;;5053995;28;20682;-78
2023/07/18 04:12:07;;;;;;;14.00;8.90;;;;;;;;;;5053884;28;20037;-78
2023/07/18 04:14:35;;;;;;;15.90;9.20;;;;;;;;;;5053931;28;20013;-78
2023/07/18 04:17:01;;;;;;;16.52;9.07;;;;;;;;;;5053420;28;20063;-77
2023/07/18 04:19:29;;;;;;;16.23;9.27;;;;;;;;;;5052552;28;20104;-78
2023/07/18 04:21:56;;;;;;;15.93;9.68;;;;;;;;;;5053794;28;20116;-77
2023/07/18 04:24:22;;;;;;;14.23;8.75;;;;;;;;;;5053611;28;20419;-76
2023/07/18 04:26:48;;;;;;;17.13;9.82;;;;;;;;;;5052462;28;20021;-77
2023/07/18 04:29:14;;;;;;;24.35;9.50;;;;;;;;;;5053236;28;20025;-77
2023/07/18 04:31:41;;;;;;;17.23;8.45;;;;;;;;;;5053029;28;20124;-77
2023/07/18 04:34:07;;;;;;;24.25;10.13;;;;;;;;;;5053803;28;20478;-77
2023/07/18 04:36:33;;;;;;;21.85;9.30;;;;;;;;;;5052982;28;20470;-77
2023/07/18 04:38:59;;;;;;;23.17;9.13;;;;;;;;;;5053129;28;20021;-77
2023/07/18 04:41:26;;;;;;;23.27;9.63;;;;;;;;;;5047465;28;20025;-77
2023/07/18 04:43:52;;;;;;;13.98;8.82;;;;;;;;;;5053426;28;20021;-77
2023/07/18 04:46:18;;;;;;;13.90;7.68;;;;;;;;;;5051657;28;20378;-76
2023/07/18 04:48:44;;;;;;;24.52;8.52;;;;;;;;;;5052581;28;21569;-77
2023/07/18 04:51:10;;;;;;;14.18;9.23;;;;;;;;;;5052992;28;20025;-77
2023/07/18 04:53:36;;;;;;;16.30;7.88;;;;;;;;;;5052980;28;20503;-77
2023/07/18 04:56:04;;;;;;;14.32;8.43;;;;;;;;;;5052023;28;20459;-77
2023/07/18 04:58:30;;;;;;;12.25;7.82;;;;;;;;;;5051134;28;20082;-77
2023/07/18 05:00:57;;;;;;;13.75;8.55;;;;;;;;;;5057582;28;20021;-77
2023/07/18 05:03:23;;;;;;;10.02;7.70;;;;;;;;;;5057280;28;20017;-77
2023/07/18 05:05:50;;;;;;;12.68;7.97;;;;;;;;;;5060911;28;20438;-77
2023/07/18 05:08:19;;;;;;;19.80;8.02;;;;;;;;;;5057028;28;20344;-78
2023/07/18 05:10:45;;;;;;;13.00;8.00;;;;;;;;;;5052930;28;20021;-78
2023/07/18 05:13:11;;;;;;;10.73;7.50;;;;;;;;;;5051711;28;20083;-78
2023/07/18 05:15:38;;;;;;;19.58;7.60;;;;;;;;;;5057431;28;20070;-78
2023/07/18 05:18:04;;;;;;;16.73;7.28;;;;;;;;;;5052800;28;20079;-78
2023/07/18 05:20:30;;;;;;;13.15;8.00;;;;;;;;;;5052417;28;20448;-78
2023/07/18 05:22:56;;;;;;;14.20;7.88;;;;;;;;;;5051604;28;20032;-78
2023/07/18 05:25:22;;;;;;;15.65;8.48;;;;;;;;;;5053057;28;20463;-77
2023/07/18 05:27:48;;;;;;;14.50;7.93;;;;;;;;;;5051072;28;20055;-77
2023/07/18 05:30:16;;;;;;;14.90;6.85;;;;;;;;;;5051932;28;20341;-78
2023/07/18 05:32:42;;;;;;;14.70;7.43;;;;;;;;;;5054394;28;20751;-78
2023/07/18 05:35:13;;;;;;;17.60;7.72;;;;;;;;;;5054152;28;20459;-77
2023/07/18 05:37:40;;;;;;;16.92;7.78;;;;;;;;;;5051429;28;20028;-77
2023/07/18 05:40:10;;;;;;;17.20;8.45;;;;;;;;;;5062238;28;20029;-77
2023/07/18 05:42:40;;;;;;;18.40;8.57;;;;;;;;;;5059715;28;20455;-77
2023/07/18 05:45:07;;;;;;;16.58;7.65;;;;;;;;;;5073376;28;20474;-77
2023/07/18 05:47:34;;;;;;;16.52;8.30;;;;;;;;;;5056172;28;20041;-76
2023/07/18 05:50:00;;;;;;;15.73;7.68;;;;;;;;;;5055412;28;20028;-77
2023/07/18 05:52:26;;;;;;;18.25;8.07;;;;;;;;;;5056731;28;20025;-77
2023/07/18 05:54:53;;;;;;;17.90;9.10;;;;;;;;;;5060727;28;20067;-77
2023/07/18 05:57:19;;;;;;;15.77;7.55;;;;;;;;;;5054949;28;20013;-77
2023/07/18 05:59:45;;;;;;;19.77;8.13;;;;;;;;;;5057613;28;20027;-77
2023/07/18 06:02:11;;;;;;;13.35;7.28;;;;;;;;;;5060453;28;20021;-77
2023/07/18 06:04:38;;;;;;;16.67;7.55;;;;;;;;;;5055888;28;20386;-78
2023/07/18 06:07:04;;;;;;;15.95;8.52;;;;;;;;;;5056623;28;20017;-77
2023/07/18 06:09:31;;;;;;;11.82;7.20;;;;;;;;;;5055529;28;20414;-77
2023/07/18 06:11:57;;;;;;;13.68;7.45;;;;;;;;;;5056697;28;20028;-78
2023/07/18 06:14:23;;;;;;;12.35;7.18;;;;;;;;;;5056246;28;20029;-78
2023/07/18 06:16:49;;;;;;;13.77;7.72;;;;;;;;;;5056043;28;20162;-78
2023/07/18 06:19:15;;;;;;;10.90;7.20;;;;;;;;;;5059466;28;20033;-78
2023/07/18 06:21:42;;;;;;;12.05;7.38;;;;;;;;;;5056452;28;20017;-77
2023/07/18 06:24:08;;;;;;;12.18;7.28;;;;;;;;;;5049127;28;20083;-77
2023/07/18 06:26:34;;;;;;;12.50;7.43;;;;;;;;;;5055980;28;20021;-78
2023/07/18 06:29:00;;;;;;;11.73;7.28;;;;;;;;;;5056036;28;20021;-78
2023/07/18 06:31:28;;;;;;;21.92;7.38;;;;;;;;;;5055304;28;20020;-78
2023/07/18 06:33:54;;;;;;;16.95;7.95;;;;;;;;;;5054306;28;20106;-78
2023/07/18 06:36:23;;;;;;;13.95;7.75;;;;;;;;;;5059377;28;20028;-78
2023/07/18 06:38:49;;;;;;;12.13;7.43;;;;;;;;;;5055650;28;20358;-78
2023/07/18 06:41:16;;;;;;;13.90;7.10;;;;;;;;;;5055156;28;20576;-78
2023/07/18 06:43:42;;;;;;;10.77;6.80;;;;;;;;;;5055223;28;20021;-78
2023/07/18 06:46:08;;;;;;;9.77;6.30;;;;;;;;;;5055689;28;20070;-78
2023/07/18 06:48:37;;;;;;;12.02;6.57;;;;;;;;;;5055614;28;20459;-78
2023/07/18 06:51:06;;;;;;;16.33;7.50;;;;;;;;;;5054134;28;20104;-78
2023/07/18 06:53:32;;;;;;;15.95;7.82;;;;;;;;;;5059728;28;20036;-78
2023/07/18 06:55:58;;;;;;;12.60;6.68;;;;;;;;;;5056769;28;20021;-78
2023/07/18 06:58:25;;;;;;;15.48;7.10;;;;;;;;;;5053608;28;20021;-78
2023/07/18 07:00:51;;;;;;;12.77;6.85;;;;;;;;;;5056023;28;20074;-78
2023/07/18 07:03:17;;;;;;;10.50;6.70;;;;;;;;;;5054021;28;20108;-78
2023/07/18 07:05:43;;;;;;;10.60;6.68;;;;;;;;;;5054921;28;20509;-78
2023/07/18 07:08:10;;;;;;;8.07;5.93;;;;;;;;;;5055659;28;20025;-78
2023/07/18 07:10:40;;;;;;;11.80;6.38;;;;;;;;;;5070141;28;20021;-78
2023/07/18 07:13:07;;;;;;;12.25;7.10;;;;;;;;;;5055469;28;20052;-79
2023/07/18 07:15:33;;;;;;;11.63;6.45;;;;;;;;;;5055105;28;20021;-78
2023/07/18 07:17:59;;;;;;;11.30;6.40;;;;;;;;;;5055519;28;20374;-79
2023/07/18 07:20:26;;;;;;;9.73;5.95;;;;;;;;;;5054128;28;20025;-79
2023/07/18 07:22:53;;;;;;;10.30;6.10;;;;;;;;;;5054074;28;20020;-79
2023/07/18 07:25:19;;;;;;;10.48;6.32;;;;;;;;;;5057144;28;20013;-78
2023/07/18 07:27:46;;;;;;;13.23;6.53;;;;;;;;;;5074689;28;20024;-79
2023/07/18 07:30:16;;;;;;;7.95;5.97;;;;;;;;;;5054828;28;20103;-79
2023/07/18 07:32:43;;;;;;;12.70;5.55;;;;;;;;;;5064363;28;20028;-80
2023/07/18 07:35:09;;;;;;;12.20;7.63;;;;;;;;;;5056019;28;20013;-79
2023/07/18 07:37:36;;;;;;;9.05;6.10;;;;;;;;;;5054648;28;20021;-78
2023/07/18 07:40:06;;;;;;;9.40;5.38;;;;;;;;;;5056934;28;20016;-79
2023/07/18 07:42:32;;;;;;;7.95;5.28;;;;;;;;;;5054074;28;20020;-78
2023/07/18 07:44:58;;;;;;;7.88;4.97;;;;;;;;;;5054147;28;20029;-79
2023/07/18 07:47:25;;;;;;;8.65;4.03;;;;;;;;;;5053444;28;20475;-79
2023/07/18 07:49:51;;;;;;;6.70;2.80;;;;;;;;;;5053535;28;20013;-78
2023/07/18 07:52:18;;;;;;;4.30;2.78;;;;;;;;;;5070590;28;20025;-80
2023/07/18 07:54:45;;;;;;;4.40;2.80;;;;;;;;;;5072577;28;20451;-80
2023/07/18 07:57:11;;;;;;;6.47;3.70;;;;;;;;;;5073425;28;20039;-79
2023/07/18 07:59:37;;;;;;;5.25;2.97;;;;;;;;;;5074012;28;20020;-80
2023/07/18 08:02:03;;;;;;;5.13;3.00;;;;;;;;;;5072878;28;20158;-80
2023/07/18 08:04:30;;;;;;;5.10;3.30;;;;;;;;;;5073246;28;20040;-80
2023/07/18 08:06:56;;;;;;;12.15;3.95;;;;;;;;;;5074504;28;20013;-80
2023/07/18 08:09:22;;;;;;;5.45;3.65;;;;;;;;;;5074244;28;20028;-80
2023/07/18 08:11:48;;;;;;;4.93;3.38;;;;;;;;;;5073185;28;20109;-80
2023/07/18 08:14:15;;;;;;;5.28;3.40;;;;;;;;;;5073258;28;20028;-80
2023/07/18 08:16:41;;;;;;;5.00;3.70;;;;;;;;;;5067935;28;20136;-80
2023/07/18 08:19:08;;;;;;;11.38;4.53;;;;;;;;;;5074221;28;20099;-80
2023/07/18 08:21:34;;;;;;;7.82;4.13;;;;;;;;;;5058231;28;20031;-80
2023/07/18 08:24:00;;;;;;;9.00;4.10;;;;;;;;;;5055530;28;20017;-80
2023/07/18 08:26:26;;;;;;;11.32;3.80;;;;;;;;;;5070005;28;20013;-80
2023/07/18 08:28:53;;;;;;;9.32;4.35;;;;;;;;;;5071173;28;20020;-80
2023/07/18 08:31:19;;;;;;;8.32;4.25;;;;;;;;;;5073970;28;20052;-80
2023/07/18 08:33:45;;;;;;;7.72;4.38;;;;;;;;;;5073908;28;20375;-80
2023/07/18 08:36:12;;;;;;;5.05;4.20;;;;;;;;;;5073884;28;20029;-80
2023/07/18 08:38:38;;;;;;;8.10;4.75;;;;;;;;;;5058964;28;20063;-80
2023/07/18 08:41:04;;;;;;;15.93;4.65;;;;;;;;;;5052703;28;20025;-78
2023/07/18 08:43:34;;;;;;;6.38;4.25;;;;;;;;;;5053802;28;20451;-79
2023/07/18 08:46:03;;;;;;;6.70;4.88;;;;;;;;;;5053971;28;20021;-79
2023/07/18 08:48:29;;;;;;;5.45;3.85;;;;;;;;;;5056272;28;20533;-78
2023/07/18 08:50:56;;;;;;;9.95;4.57;;;;;;;;;;5051845;28;20119;-79
2023/07/18 08:53:22;;;;;;;13.52;4.72;;;;;;;;;;5064981;28;20016;-79
2023/07/18 08:55:49;;;;;;;7.43;4.47;;;;;;;;;;5073655;28;20447;-78
2023/07/18 08:58:18;;;;;;;7.75;4.65;;;;;;;;;;5072259;28;20362;-79
2023/07/18 09:00:44;;;;;;;8.40;4.43;;;;;;;;;;5051941;28;20047;-79
2023/07/18 09:03:10;;;;;;;9.20;4.22;;;;;;;;;;5053488;28;20033;-79
2023/07/18 09:05:37;;;;;;;9.23;4.60;;;;;;;;;;5051657;28;20021;-79
2023/07/18 09:08:05;;;;;;;5.85;4.18;;;;;;;;;;5054911;28;20047;-79
2023/07/18 09:10:31;;;;;;;7.40;4.85;;;;;;;;;;5053878;28;20367;-79
2023/07/18 09:13:02;;;;;;;10.45;5.25;;;;;;;;;;5052891;28;20024;-79
2023/07/18 09:15:28;;;;;;;8.63;4.30;;;;;;;;;;5056463;28;20394;-79
2023/07/18 09:17:56;;;;;;;8.82;5.13;;;;;;;;;;5060175;28;20028;-79
2023/07/18 09:20:24;;;;;;;8.55;4.50;;;;;;;;;;5055039;28;20029;-78
2023/07/18 09:22:52;;;;;;;6.78;4.43;;;;;;;;;;5052310;28;20474;-78
2023/07/18 09:25:18;;;;;;;7.85;4.55;;;;;;;;;;5051862;28;20031;-79
2023/07/18 09:27:44;;;;;;;9.20;4.75;;;;;;;;;;5051901;28;20019;-79
2023/07/18 09:30:11;;;;;;;7.32;4.30;;;;;;;;;;5068982;28;20474;-80
2023/07/18 09:32:39;;;;;;;6.38;4.32;;;;;;;;;;5073360;28;20056;-80
2023/07/18 09:35:05;;;;;;;6.07;4.90;;;;;;;;;;5073455;28;20024;-79
2023/07/18 09:37:32;;;;;;;6.25;4.47;;;;;;;;;;5073457;28;20017;-79
2023/07/18 09:39:59;;;;;;;8.07;4.28;;;;;;;;;;5072000;28;20016;-79
2023/07/18 09:42:25;;;;;;;5.28;4.10;;;;;;;;;;5052444;28;20009;-80
2023/07/18 09:44:51;;;;;;;11.00;4.63;;;;;;;;;;5051280;28;20016;-80
2023/07/18 09:47:26;;;;;;;7.82;4.25;;;;;;;;;;5050922;28;20041;-80
2023/07/18 09:49:56;;;;;;;6.20;4.18;;;;;;;;;;5052055;28;20467;-79
2023/07/18 09:52:26;;;;;;;5.88;4.22;;;;;;;;;;5052376;28;20051;-79
2023/07/18 09:54:53;;;;;;;6.20;4.10;;;;;;;;;;5056410;28;20017;-78
2023/07/18 09:57:20;;;;;;;7.05;4.47;;;;;;;;;;5052481;28;20005;-81
2023/07/18 09:59:48;;;;;;;9.93;4.47;;;;;;;;;;5052067;28;20104;-80
2023/07/18 10:02:15;;;;;;;8.77;5.18;;;;;;;;;;5055284;28;20029;-80
2023/07/18 10:04:41;;;;;;;6.72;4.45;;;;;;;;;;5056000;28;20035;-80
2023/07/18 10:07:08;;;;;;;10.77;4.13;;;;;;;;;;5051110;28;20023;-79
2023/07/18 10:09:36;;;;;;;6.38;3.90;;;;;;;;;;5054125;28;20016;-79
2023/07/18 10:12:02;;;;;;;9.90;3.75;;;;;;;;;;5052410;28;20091;-78
2023/07/18 10:14:47;;;;;;;6.50;4.18;;;;;;;;;;5051869;28;20029;-78
2023/07/18 10:17:33;;;;;;;5.00;3.58;;;;;;;;;;5048867;28;20467;-78
2023/07/18 10:20:01;;;;;;;8.73;4.90;;;;;;;;;;5052523;28;20017;-78
2023/07/18 10:22:31;;;;;;;9.50;3.95;;;;;;;;;;5050320;28;20025;-79
2023/07/18 10:25:07;;;;;;;4.85;3.75;;;;;;;;;;5053182;28;20023;-79
2023/07/18 10:27:40;;;;;;;6.22;3.30;;;;;;;;;;5050762;28;20682;-79
2023/07/18 10:30:07;;;;;;;8.45;3.72;;;;;;;;;;5057103;28;20036;-79
2023/07/18 10:32:34;;;;;;;4.50;3.35;;;;;;;;;;5068742;28;20396;-79
2023/07/18 10:35:06;;;;;;;5.57;3.45;;;;;;;;;;5053663;28;20020;-79
2023/07/18 10:37:32;;;;;;;5.82;3.72;;;;;;;;;;5056874;28;20032;-79
2023/07/18 10:39:59;;;;;;;5.82;3.40;;;;;;;;;;5055792;28;20021;-79
2023/07/18 10:42:30;;;;;;;4.47;3.08;;;;;;;;;;5054261;28;20112;-79
2023/07/18 10:44:57;;;;;;;7.15;4.80;;;;;;;;;;5054337;28;20515;-79
2023/07/18 10:47:23;;;;;;;8.57;3.15;;;;;;;;;;5054095;28;20045;-79
2023/07/18 10:49:50;;;;;;;4.68;3.38;;;;;;;;;;5055068;28;20052;-79
2023/07/18 10:52:16;;;;;;;3.28;2.67;;;;;;;;;;5055171;28;20025;-78
2023/07/18 10:54:46;;;;;;;5.47;2.95;;;;;;;;;;5054634;28;20074;-79
2023/07/18 10:57:12;;;;;;;4.68;3.10;;;;;;;;;;5054199;28;20108;-79
2023/07/18 10:59:42;;;;;;;6.07;2.92;;;;;;;;;;5055052;28;20021;-79
2023/07/18 11:02:08;;;;;;;6.32;3.35;;;;;;;;;;5055755;28;20021;-79
2023/07/18 11:04:34;;;;;;;8.50;2.80;;;;;;;;;;5054831;28;20028;-79
2023/07/18 11:07:00;;;;;;;7.38;2.72;;;;;;;;;;5053782;28;20044;-79
2023/07/18 11:09:26;;;;;;;10.50;2.75;;;;;;;;;;5053754;28;20017;-79
2023/07/18 11:11:53;;;;;;;5.88;3.22;;;;;;;;;;5054796;28;20482;-78
2023/07/18 11:14:19;;;;;;;7.55;2.75;;;;;;;;;;5053802;28;20036;-78
2023/07/18 11:16:45;;;;;;;3.47;2.40;;;;;;;;;;5071392;28;20017;-81
2023/07/18 11:19:13;;;;;;;3.30;2.42;;;;;;;;;;5075183;28;20020;-78
2023/07/18 11:22:06;;;;;;;5.53;2.42;;;;;;;;;;5057879;28;20024;-79
2023/07/18 11:24:33;;;;;;;3.67;2.22;;;;;;;;;;5056586;28;20035;-78
2023/07/18 11:27:17;;;;;;;5.28;2.88;;;;;;;;;;5066398;28;20035;-80
2023/07/18 11:30:10;;;;;;;4.13;2.40;;;;;;;;;;5062866;28;20048;-80
2023/07/18 11:32:40;;;;;;;4.13;2.83;;;;;;;;;;5071124;28;20044;-80
2023/07/18 11:35:10;;;;;;;4.13;2.47;;;;;;;;;;5074791;28;20035;-80
2023/07/18 11:37:38;;;;;;;4.03;2.50;;;;;;;;;;5073234;28;20031;-80
2023/07/18 11:40:05;;;;;;;3.58;2.70;;;;;;;;;;5059099;28;20019;-80
2023/07/18 11:42:46;;;;;;;4.25;2.85;;;;;;;;;;5072657;28;20025;-80
2023/07/18 11:45:13;;;;;;;3.53;2.70;;;;;;;;;;5072895;28;20055;-80
2023/07/18 11:47:43;;;;;;;5.95;2.50;;;;;;;;;;5073887;28;20045;-80
2023/07/18 11:50:10;;;;;;;4.53;2.23;;;;;;;;;;5074324;28;20066;-80
2023/07/18 11:52:36;;;;;;;5.03;2.53;;;;;;;;;;5072676;28;20366;-80
2023/07/18 11:55:02;;;;;;;5.88;2.67;;;;;;;;;;5072899;28;20526;-80
2023/07/18 11:57:29;;;;;;;4.15;2.72;;;;;;;;;;5073932;28;20406;-80
2023/07/18 11:59:55;;;;;;;3.45;2.33;;;;;;;;;;5073751;28;20025;-80
2023/07/18 12:02:21;;;;;;;8.07;3.15;;;;;;;;;;5072799;28;20017;-80
2023/07/18 12:04:47;;;;;;;3.72;2.50;;;;;;;;;;5073875;28;20021;-80
2023/07/18 12:07:14;;;;;;;5.63;2.65;;;;;;;;;;5073861;28;20020;-80
2023/07/18 12:09:40;;;;;;;4.07;2.30;;;;;;;;;;5073661;28;20070;-80
2023/07/18 12:12:06;;;;;;;4.05;2.90;;;;;;;;;;5073916;28;20069;-80
2023/07/18 12:14:32;;;;;;;5.07;2.70;;;;;;;;;;5073496;28;20025;-80
2023/07/18 12:16:59;;;;;;;4.75;2.85;;;;;;;;;;5058368;28;20119;-79
2023/07/18 12:19:26;;;;;;;5.20;2.83;;;;;;;;;;5071536;28;20044;-80
2023/07/18 12:21:52;;;;;;;4.40;2.85;;;;;;;;;;5053699;28;20029;-79
2023/07/18 12:24:18;;;;;;;3.40;2.63;;;;;;;;;;5069019;28;20021;-80
2023/07/18 12:26:45;;;;;;;4.55;2.88;;;;;;;;;;5068677;28;20021;-80
2023/07/18 12:29:16;;;;;;;4.72;2.67;;;;;;;;;;5069154;28;20021;-80
2023/07/18 12:31:51;;;;;;;5.00;2.80;;;;;;;;;;5053450;28;20029;-80
2023/07/18 12:34:21;;;;;;;4.93;2.90;;;;;;;;;;5052844;28;20029;-80
2023/07/18 12:36:47;;;;;;;4.70;2.65;;;;;;;;;;5054266;28;20027;-80
2023/07/18 12:39:15;;;;;;;5.43;3.10;;;;;;;;;;5052970;28;20024;-81
2023/07/18 12:41:42;;;;;;;4.28;2.53;;;;;;;;;;5054164;28;20032;-80
2023/07/18 12:44:08;;;;;;;7.30;2.85;;;;;;;;;;5052885;28;20028;-80
2023/07/18 12:46:35;;;;;;;6.70;3.33;;;;;;;;;;5054568;28;20021;-80
2023/07/18 12:49:05;;;;;;;4.20;2.47;;;;;;;;;;5053527;28;20472;-80
2023/07/18 12:51:31;;;;;;;4.85;2.50;;;;;;;;;;5052587;28;20036;-80
2023/07/18 12:53:57;;;;;;;4.70;2.72;;;;;;;;;;5052735;28;20082;-81
2023/07/18 12:56:24;;;;;;;4.13;2.63;;;;;;;;;;5053973;28;20067;-81
2023/07/18 12:58:51;;;;;;;6.78;2.33;;;;;;;;;;5052345;28;20021;-80
2023/07/18 13:01:18;;;;;;;4.13;2.40;;;;;;;;;;5052352;28;20079;-80
2023/07/18 13:03:44;;;;;;;6.20;2.55;;;;;;;;;;5052666;28;20028;-80
2023/07/18 13:06:10;;;;;;;4.55;2.38;;;;;;;;;;5053946;28;20033;-80
2023/07/18 13:08:36;;;;;;;3.88;2.90;;;;;;;;;;5052523;28;20025;-80
2023/07/18 13:11:03;;;;;;;3.35;2.50;;;;;;;;;;5052176;28;20029;-80
2023/07/18 13:13:30;;;;;;;9.38;2.78;;;;;;;;;;5053343;28;20025;-80
2023/07/18 13:15:56;;;;;;;4.32;2.40;;;;;;;;;;5058568;28;20023;-80
2023/07/18 13:18:22;;;;;;;5.15;2.58;;;;;;;;;;5073451;28;20104;-80
2023/07/18 13:20:48;;;;;;;7.57;2.70;;;;;;;;;;5071907;28;20351;-80
2023/07/18 13:23:15;;;;;;;3.13;2.38;;;;;;;;;;5072419;28;20016;-80
2023/07/18 13:25:41;;;;;;;3.50;2.28;;;;;;;;;;5071109;28;20020;-80
2023/07/18 13:28:08;;;;;;;4.28;2.83;;;;;;;;;;5059037;28;20032;-80
2023/07/18 13:30:34;;;;;;;3.80;2.60;;;;;;;;;;5053179;28;20021;-80
2023/07/18 13:33:01;;;;;;;5.65;2.95;;;;;;;;;;5051944;28;20368;-80
2023/07/18 13:35:27;;;;;;;3.50;2.25;;;;;;;;;;5053518;28;20025;-80
2023/07/18 13:37:54;;;;;;;5.35;2.55;;;;;;;;;;5051654;28;20078;-80
2023/07/18 13:40:20;;;;;;;10.68;3.28;;;;;;;;;;5052295;28;20363;-80
2023/07/18 13:42:46;;;;;;;5.57;2.63;;;;;;;;;;5053477;28;20021;-80
2023/07/18 13:45:12;;;;;;;3.70;2.35;;;;;;;;;;5052046;28;20032;-80
2023/07/18 13:47:40;;;;;;;5.18;2.42;;;;;;;;;;5053066;28;20042;-80
2023/07/18 13:50:06;;;;;;;5.70;3.00;;;;;;;;;;5051941;28;20025;-80
2023/07/18 13:52:32;;;;;;;4.28;2.60;;;;;;;;;;5051905;28;20029;-80
2023/07/18 13:54:58;;;;;;;5.38;2.28;;;;;;;;;;5053417;28;20075;-80
2023/07/18 13:57:24;;;;;;;4.00;2.72;;;;;;;;;;5052798;28;20341;-80
2023/07/18 13:59:51;;;;;;;7.78;2.90;;;;;;;;;;5055388;28;20459;-80
2023/07/18 14:02:17;;;;;;;5.55;2.55;;;;;;;;;;5057236;28;20029;-80
2023/07/18 14:04:43;;;;;;;6.10;2.55;;;;;;;;;;5056974;28;20021;-80
2023/07/18 14:07:10;;;;;;;5.28;2.20;;;;;;;;;;5057042;28;20045;-80
2023/07/18 14:09:36;;;;;;;5.22;2.45;;;;;;;;;;5056811;28;20104;-80
2023/07/18 14:12:02;;;;;;;9.68;3.08;;;;;;;;;;5056440;28;20032;-80
2023/07/18 14:14:28;;;;;;;4.35;2.83;;;;;;;;;;5055897;28;20099;-80
2023/07/18 14:16:54;;;;;;;6.43;3.22;;;;;;;;;;5057526;28;20020;-80
2023/07/18 14:19:20;;;;;;;7.43;2.65;;;;;;;;;;5075519;28;20103;-80
2023/07/18 14:21:47;;;;;;;3.95;2.47;;;;;;;;;;5059416;28;20029;-80
2023/07/18 14:24:13;;;;;;;3.92;2.70;;;;;;;;;;5071373;28;20379;-80
2023/07/18 14:26:39;;;;;;;4.40;2.40;;;;;;;;;;5069576;28;20028;-80
2023/07/18 14:29:05;;;;;;;6.82;2.60;;;;;;;;;;5065466;28;20020;-80
2023/07/18 14:31:32;;;;;;;10.48;2.95;;;;;;;;;;5075245;28;20035;-80
2023/07/18 14:33:58;;;;;;;4.45;2.70;;;;;;;;;;5075108;28;20021;-80